createdAt,value
2023-02-19T00:00:18.936Z,97846.97
2023-02-19T00:02:45.569Z,97846.03
2023-02-19T00:05:12.207Z,97851.59
2023-02-19T00:07:38.907Z,97849.38
2023-02-19T00:10:05.774Z,97848.44
2023-02-19T00:12:32.403Z,97847.44
2023-02-19T00:14:58.991Z,97845.78
2023-02-19T00:17:25.596Z,97852.25
2023-02-19T00:19:52.289Z,97844.19
2023-02-19T00:22:18.905Z,97840.03
2023-02-19T00:24:46.491Z,97845.78
2023-02-19T00:27:14.418Z,97849.47
2023-02-19T00:29:41.056Z,97848.44
2023-02-19T00:32:07.750Z,97847.06
2023-02-19T00:34:34.393Z,97845.50
2023-02-19T00:37:01.017Z,97843.09
2023-02-19T00:39:27.628Z,97845.88
2023-02-19T00:41:54.247Z,97844.19
2023-02-19T00:44:21.001Z,97841.81
2023-02-19T00:46:47.588Z,97836.16
2023-02-19T00:49:21.893Z,97837.09
2023-02-19T00:51:49.018Z,97838.97
2023-02-19T00:54:15.750Z,97842.84
2023-02-19T00:56:42.438Z,97848.53
2023-02-19T00:59:09.316Z,97841.91
2023-02-19T01:01:36.035Z,97846.59
2023-02-19T01:04:04.304Z,97844.28
2023-02-19T01:06:32.875Z,97840.94
2023-02-19T01:08:59.474Z,97840.59
2023-02-19T01:11:26.109Z,97839.94
2023-02-19T01:13:52.886Z,97835.88
2023-02-19T01:16:20.986Z,97838.94
2023-02-19T01:18:47.848Z,97837.81
2023-02-19T01:21:19.359Z,97835.22
2023-02-19T01:23:46.370Z,97841.59
2023-02-19T01:26:15.142Z,97838.81
2023-02-19T01:28:41.825Z,97841.78
2023-02-19T01:31:10.920Z,97840.28
2023-02-19T01:33:37.846Z,97836.34
2023-02-19T01:36:04.934Z,97836.25
2023-02-19T01:38:31.586Z,97829.03
2023-02-19T01:41:02.295Z,97839.09
2023-02-19T01:43:28.882Z,97831.06
2023-02-19T01:45:55.528Z,97819.66
2023-02-19T01:48:33.455Z,97821.84
2023-02-19T01:51:06.196Z,97825.06
2023-02-19T01:53:35.745Z,97822.75
2023-02-19T01:56:02.410Z,97820.28
2023-02-19T01:58:31.528Z,97819.91
2023-02-19T02:00:58.684Z,97824.63
2023-02-19T02:03:25.487Z,97815.28
2023-02-19T02:06:04.647Z,97812.25
2023-02-19T02:08:31.617Z,97800.53
2023-02-19T02:10:58.360Z,97801.25
2023-02-19T02:13:25.092Z,97800.13
2023-02-19T02:16:11.421Z,97796.47
2023-02-19T02:19:02.843Z,97791.66
2023-02-19T02:22:03.175Z,97793.31
2023-02-19T02:24:37.158Z,97794.13
2023-02-19T02:27:06.555Z,97793.84
2023-02-19T02:29:51.927Z,97788.03
2023-02-19T02:32:24.776Z,97791.81
2023-02-19T02:34:58.201Z,97789.69
2023-02-19T02:37:25.771Z,97789.97
2023-02-19T02:39:52.413Z,97791.56
2023-02-19T02:42:19.054Z,97780.19
2023-02-19T02:44:45.685Z,97778.63
2023-02-19T02:47:12.294Z,97780.03
2023-02-19T02:49:38.948Z,97786.66
2023-02-19T02:52:05.654Z,97785.81
2023-02-19T02:54:33.050Z,97779.28
2023-02-19T02:56:59.662Z,97772.00
2023-02-19T02:59:27.856Z,97786.22
2023-02-19T03:02:09.393Z,97784.63
2023-02-19T03:04:57.913Z,97780.13
2023-02-19T03:07:24.581Z,97780.31
2023-02-19T03:09:51.211Z,97773.13
2023-02-19T03:12:17.912Z,97776.31
2023-02-19T03:14:46.717Z,97767.84
2023-02-19T03:17:26.169Z,97767.56
2023-02-19T03:19:54.368Z,97767.25
2023-02-19T03:22:24.668Z,97771.41
2023-02-19T03:24:54.239Z,97773.44
2023-02-19T03:27:20.880Z,97776.22
2023-02-19T03:29:47.802Z,97764.69
2023-02-19T03:32:21.122Z,97757.22
2023-02-19T03:35:28.162Z,97749.72
2023-02-19T03:38:00.589Z,97738.59
2023-02-19T03:40:29.652Z,97745.13
2023-02-19T03:43:21.370Z,97748.81
2023-02-19T03:45:49.378Z,97753.44
2023-02-19T03:48:15.957Z,97749.72
2023-02-19T03:51:17.876Z,97755.56
2023-02-19T03:53:56.084Z,97752.69
2023-02-19T03:56:27.980Z,97749.03
2023-02-19T03:59:02.055Z,97751.84
2023-02-19T04:01:41.738Z,97755.56
2023-02-19T04:04:12.973Z,97754.16
2023-02-19T04:06:39.674Z,97754.25
2023-02-19T04:09:07.497Z,97755.63
2023-02-19T04:11:34.159Z,97769.56
2023-02-19T04:14:29.904Z,97772.16
2023-02-19T04:16:59.848Z,97766.53
2023-02-19T04:19:26.485Z,97775.50
2023-02-19T04:21:53.327Z,97779.41
2023-02-19T04:24:23.351Z,97775.69
2023-02-19T04:26:49.955Z,97779.66
2023-02-19T04:29:16.578Z,97785.56
2023-02-19T04:31:43.211Z,97789.00
2023-02-19T04:34:09.893Z,97793.97
2023-02-19T04:36:36.513Z,97803.59
2023-02-19T04:39:03.118Z,97811.72
2023-02-19T04:41:29.744Z,97817.22
2023-02-19T04:43:56.449Z,97821.31
2023-02-19T04:46:23.131Z,97824.63
2023-02-19T04:48:49.803Z,97820.81
2023-02-19T04:51:16.479Z,97810.09
2023-02-19T04:53:43.125Z,97817.69
2023-02-19T04:56:14.404Z,97817.31
2023-02-19T04:58:41.469Z,97818.25
2023-02-19T05:01:08.986Z,97828.03
2023-02-19T05:03:36.101Z,97832.09
2023-02-19T05:06:06.922Z,97833.00
2023-02-19T05:08:33.570Z,97836.66
2023-02-19T05:11:00.765Z,97812.72
2023-02-19T05:13:27.440Z,97797.00
2023-02-19T05:16:01.434Z,97804.41
2023-02-19T05:18:28.245Z,97817.78
2023-02-19T05:20:54.867Z,97805.16
2023-02-19T05:23:21.484Z,97808.00
2023-02-19T05:25:48.638Z,97802.41
2023-02-19T05:28:15.325Z,97790.00
2023-02-19T05:30:41.937Z,97777.81
2023-02-19T05:33:08.577Z,97772.94
2023-02-19T05:35:40.164Z,97770.00
2023-02-19T05:38:06.846Z,97767.31
2023-02-19T05:40:33.768Z,97767.75
2023-02-19T05:43:00.354Z,97763.34
2023-02-19T05:45:26.993Z,97747.16
2023-02-19T05:47:53.659Z,97752.16
2023-02-19T05:50:20.352Z,97749.47
2023-02-19T05:52:46.996Z,97754.19
2023-02-19T05:55:13.668Z,97772.63
2023-02-19T05:57:43.961Z,97771.09
2023-02-19T06:00:20.225Z,97759.19
2023-02-19T06:02:46.909Z,97756.97
2023-02-19T06:05:13.972Z,97754.38
2023-02-19T06:07:40.613Z,97761.47
2023-02-19T06:10:07.801Z,97760.41
2023-02-19T06:12:34.400Z,97758.81
2023-02-19T06:15:00.989Z,97767.38
2023-02-19T06:17:27.604Z,97773.38
2023-02-19T06:19:54.199Z,97784.09
2023-02-19T06:22:20.900Z,97794.53
2023-02-19T06:24:47.871Z,97789.00
2023-02-19T06:27:14.534Z,97792.13
2023-02-19T06:29:41.134Z,97800.34
2023-02-19T06:32:07.915Z,97798.88
2023-02-19T06:34:34.789Z,97816.03
2023-02-19T06:37:01.432Z,97829.25
2023-02-19T06:39:28.042Z,97836.66
2023-02-19T06:41:57.860Z,97835.97
2023-02-19T06:44:24.740Z,97838.84
2023-02-19T06:46:51.558Z,97842.09
2023-02-19T06:49:18.160Z,97842.38
2023-02-19T06:51:44.808Z,97845.69
2023-02-19T06:54:11.483Z,97843.09
2023-02-19T06:56:38.738Z,97837.91
2023-02-19T06:59:07.454Z,97843.16
2023-02-19T07:01:34.923Z,97845.47
2023-02-19T07:04:01.759Z,97853.78
2023-02-19T07:06:28.475Z,97842.28
2023-02-19T07:08:55.731Z,97853.59
2023-02-19T07:11:22.606Z,97863.50
2023-02-19T07:14:03.673Z,97857.75
2023-02-19T07:16:30.480Z,97871.25
2023-02-19T07:18:57.894Z,97876.13
2023-02-19T07:21:24.574Z,97873.41
2023-02-19T07:23:51.211Z,97877.25
2023-02-19T07:26:18.564Z,97881.41
2023-02-19T07:28:45.987Z,97874.44
2023-02-19T07:31:13.091Z,97872.03
2023-02-19T07:33:40.002Z,97876.38
2023-02-19T07:36:07.354Z,97872.94
2023-02-19T07:38:34.024Z,97868.94
2023-02-19T07:41:01.782Z,97890.25
2023-02-19T07:43:30.193Z,97896.28
2023-02-19T07:45:56.880Z,97902.72
2023-02-19T07:48:23.710Z,97903.88
2023-02-19T07:50:53.516Z,97906.19
2023-02-19T07:53:20.306Z,97900.44
2023-02-19T07:55:46.940Z,97901.75
2023-02-19T07:58:13.572Z,97904.69
2023-02-19T08:00:40.253Z,97905.38
2023-02-19T08:03:06.886Z,97907.94
2023-02-19T08:05:34.780Z,97911.47
2023-02-19T08:08:01.449Z,97914.66
2023-02-19T08:10:28.194Z,97921.34
2023-02-19T08:13:03.741Z,97911.50
2023-02-19T08:15:30.419Z,97922.75
2023-02-19T08:17:57.122Z,97925.66
2023-02-19T08:20:23.763Z,97929.22
2023-02-19T08:22:50.548Z,97926.53
2023-02-19T08:25:17.168Z,97929.69
2023-02-19T08:27:43.768Z,97926.59
2023-02-19T08:30:10.839Z,97933.28
2023-02-19T08:32:37.561Z,97928.34
2023-02-19T08:35:04.456Z,97923.13
2023-02-19T08:37:31.231Z,97919.84
2023-02-19T08:39:57.847Z,97925.72
2023-02-19T08:42:24.499Z,97935.28
2023-02-19T08:44:51.213Z,97935.56
2023-02-19T08:47:17.950Z,97941.16
2023-02-19T08:49:44.620Z,97943.06
2023-02-19T08:52:11.257Z,97931.88
2023-02-19T08:54:37.903Z,97932.31
2023-02-19T08:57:04.569Z,97931.09
2023-02-19T08:59:31.722Z,97926.97
2023-02-19T09:01:58.923Z,97929.63
2023-02-19T09:04:25.578Z,97924.06
2023-02-19T09:06:52.264Z,97929.78
2023-02-19T09:09:18.864Z,97940.78
2023-02-19T09:11:47.386Z,97934.16
2023-02-19T09:14:15.120Z,97932.31
2023-02-19T09:16:41.837Z,97935.38
2023-02-19T09:19:08.458Z,97935.75
2023-02-19T09:21:35.165Z,97937.91
2023-02-19T09:24:01.865Z,97941.66
2023-02-19T09:26:28.505Z,97926.75
2023-02-19T09:28:55.163Z,97933.09
2023-02-19T09:31:21.904Z,97937.47
2023-02-19T09:33:48.664Z,97936.84
2023-02-19T09:36:15.680Z,97928.94
2023-02-19T09:38:42.518Z,97933.94
2023-02-19T09:41:33.384Z,97936.22
2023-02-19T09:44:00.593Z,97935.38
2023-02-19T09:46:49.072Z,97928.13
2023-02-19T09:49:18.537Z,97926.91
2023-02-19T09:51:53.788Z,97934.59
2023-02-19T09:54:29.439Z,97932.13
2023-02-19T09:56:56.677Z,97930.66
2023-02-19T09:59:28.903Z,97934.19
2023-02-19T10:02:21.191Z,97936.69
2023-02-19T10:04:48.395Z,97942.50
2023-02-19T10:07:39.121Z,97941.88
2023-02-19T10:10:14.834Z,97935.47
2023-02-19T10:12:45.885Z,97946.03
2023-02-19T10:15:26.679Z,97945.59
2023-02-19T10:17:53.301Z,97947.28
2023-02-19T10:20:20.941Z,97948.28
2023-02-19T10:22:47.584Z,97950.59
2023-02-19T10:25:15.108Z,97943.91
2023-02-19T10:27:41.741Z,97940.44
2023-02-19T10:30:20.032Z,97947.09
2023-02-19T10:33:09.780Z,97940.22
2023-02-19T10:35:37.807Z,97940.84
2023-02-19T10:38:05.013Z,97936.31
2023-02-19T10:40:31.687Z,97945.63
2023-02-19T10:43:00.944Z,97947.91
2023-02-19T10:45:40.478Z,97947.69
2023-02-19T10:48:07.224Z,97944.19
2023-02-19T10:50:36.317Z,97939.19
2023-02-19T10:53:03.014Z,97934.81
2023-02-19T10:55:36.029Z,97932.56
2023-02-19T10:58:24.618Z,97932.13
2023-02-19T11:01:22.772Z,97932.75
2023-02-19T11:03:53.485Z,97932.53
2023-02-19T11:06:21.235Z,97932.78
2023-02-19T11:08:58.501Z,97932.75
2023-02-19T11:11:37.958Z,97928.66
2023-02-19T11:14:13.142Z,97928.63
2023-02-19T11:16:47.064Z,97924.47
2023-02-19T11:19:42.533Z,97921.75
2023-02-19T11:22:30.714Z,97918.84
2023-02-19T11:24:59.587Z,97919.44
2023-02-19T11:27:26.246Z,97910.06
2023-02-19T11:29:52.840Z,97904.00
2023-02-19T11:32:24.484Z,97900.66
2023-02-19T11:34:51.273Z,97902.53
2023-02-19T11:37:19.350Z,97903.75
2023-02-19T11:39:50.146Z,97897.69
2023-02-19T11:42:44.820Z,97894.53
2023-02-19T11:45:20.352Z,97892.25
2023-02-19T11:47:49.972Z,97885.59
2023-02-19T11:50:24.264Z,97880.63
2023-02-19T11:53:14.734Z,97880.78
2023-02-19T11:56:03.111Z,97874.13
2023-02-19T11:59:00.388Z,97866.88
2023-02-19T12:01:30.970Z,97870.81
2023-02-19T12:04:16.318Z,97856.72
2023-02-19T12:06:55.485Z,97857.19
2023-02-19T12:09:28.121Z,97851.16
2023-02-19T12:11:58.714Z,97855.88
2023-02-19T12:14:43.531Z,97846.28
2023-02-19T12:17:40.809Z,97833.56
2023-02-19T12:20:16.305Z,97838.06
2023-02-19T12:23:08.906Z,97830.03
2023-02-19T12:26:14.218Z,97831.00
2023-02-19T12:29:02.472Z,97832.91
2023-02-19T12:31:42.856Z,97825.81
2023-02-19T12:34:30.199Z,97828.91
2023-02-19T12:37:11.757Z,97831.84
2023-02-19T12:39:50.369Z,97828.44
2023-02-19T12:43:05.087Z,97830.50
2023-02-19T12:45:38.443Z,97823.56
2023-02-19T12:48:13.989Z,97822.81
2023-02-19T12:50:41.103Z,97822.38
2023-02-19T12:53:43.285Z,97815.53
2023-02-19T12:56:15.906Z,97817.16
2023-02-19T12:58:52.162Z,97813.34
2023-02-19T13:01:24.123Z,97809.13
2023-02-19T13:04:13.914Z,97814.84
2023-02-19T13:06:43.155Z,97811.31
2023-02-19T13:09:16.115Z,97807.56
2023-02-19T13:11:51.010Z,97800.34
2023-02-19T13:14:26.936Z,97801.78
2023-02-19T13:16:57.767Z,97800.97
2023-02-19T13:19:24.458Z,97802.84
2023-02-19T13:22:02.074Z,97799.53
2023-02-19T13:24:33.861Z,97793.97
2023-02-19T13:27:19.105Z,97794.31
2023-02-19T13:29:48.526Z,97796.47
2023-02-19T13:32:33.859Z,97792.50
2023-02-19T13:35:15.785Z,97789.94
2023-02-19T13:37:42.429Z,97787.16
2023-02-19T13:40:31.596Z,97784.25
2023-02-19T13:42:59.788Z,97781.69
2023-02-19T13:45:38.348Z,97783.06
2023-02-19T13:48:24.087Z,97784.88
2023-02-19T13:50:51.386Z,97784.25
2023-02-19T13:53:42.863Z,97780.28
2023-02-19T13:56:31.377Z,97786.66
2023-02-19T13:59:23.677Z,97781.13
2023-02-19T14:01:50.304Z,97783.19
2023-02-19T14:04:23.401Z,97780.06
2023-02-19T14:07:05.236Z,97780.06
2023-02-19T14:09:34.884Z,97781.72
2023-02-19T14:12:02.263Z,97785.78
2023-02-19T14:14:44.231Z,97793.66
2023-02-19T14:17:10.774Z,97786.22
2023-02-19T14:19:50.581Z,97775.41
2023-02-19T14:22:45.098Z,97771.34
2023-02-19T14:25:34.879Z,97760.38
2023-02-19T14:28:10.183Z,97752.81
2023-02-19T14:30:48.527Z,97755.34
2023-02-19T14:33:16.296Z,97748.38
2023-02-19T14:35:45.024Z,97737.41
2023-02-19T14:38:26.622Z,97731.22
2023-02-19T14:40:53.292Z,97747.28
2023-02-19T14:43:20.944Z,97748.19
2023-02-19T14:45:49.658Z,97742.38
2023-02-19T14:48:19.672Z,97740.41
2023-02-19T14:50:47.952Z,97733.22
2023-02-19T14:53:14.594Z,97733.47
2023-02-19T14:55:41.236Z,97740.81
2023-02-19T14:58:12.462Z,97748.78
2023-02-19T15:00:40.552Z,97753.81
2023-02-19T15:03:07.389Z,97759.59
2023-02-19T15:05:35.352Z,97756.50
2023-02-19T15:08:03.794Z,97747.41
2023-02-19T15:10:31.069Z,97763.00
2023-02-19T15:13:01.497Z,97764.81
2023-02-19T15:15:29.274Z,97761.09
2023-02-19T15:17:56.516Z,97754.78
2023-02-19T15:20:24.278Z,97755.03
2023-02-19T15:22:51.314Z,97751.44
2023-02-19T15:25:19.847Z,97752.56
2023-02-19T15:27:46.752Z,97749.19
2023-02-19T15:30:24.595Z,97748.19
2023-02-19T15:32:58.576Z,97741.91
2023-02-19T15:35:28.528Z,97753.94
2023-02-19T15:37:55.265Z,97751.59
2023-02-19T15:40:28.414Z,97765.94
2023-02-19T15:42:55.075Z,97766.16
2023-02-19T15:45:52.153Z,97767.81
2023-02-19T15:48:20.909Z,97752.84
2023-02-19T15:50:49.181Z,97755.53
2023-02-19T15:53:17.617Z,97750.94
2023-02-19T15:56:17.323Z,97753.44
2023-02-19T15:58:47.842Z,97756.81
2023-02-19T16:01:24.427Z,97766.34
2023-02-19T16:03:51.496Z,97761.97
2023-02-19T16:06:18.213Z,97764.91
2023-02-19T16:08:46.400Z,97769.78
2023-02-19T16:11:38.848Z,97776.81
2023-02-19T16:14:25.257Z,97775.78
2023-02-19T16:16:55.087Z,97781.41
2023-02-19T16:19:28.235Z,97785.16
2023-02-19T16:21:55.332Z,97797.81
2023-02-19T16:24:29.152Z,97796.00
2023-02-19T16:26:55.765Z,97787.09
2023-02-19T16:29:32.265Z,97792.03
2023-02-19T16:32:03.911Z,97793.06
2023-02-19T16:34:44.077Z,97799.91
2023-02-19T16:37:40.862Z,97803.94
2023-02-19T16:40:07.554Z,97802.91
2023-02-19T16:42:34.845Z,97801.13
2023-02-19T16:45:01.514Z,97806.34
2023-02-19T16:47:46.436Z,97806.16
2023-02-19T16:50:23.129Z,97802.66
2023-02-19T16:53:00.664Z,97810.91
2023-02-19T16:55:27.706Z,97816.09
2023-02-19T16:57:54.500Z,97844.47
2023-02-19T17:00:25.556Z,97838.78
2023-02-19T17:02:53.924Z,97838.78
2023-02-19T17:05:20.600Z,97838.34
2023-02-19T17:07:47.264Z,97840.84
2023-02-19T17:10:22.785Z,97851.63
2023-02-19T17:12:50.092Z,97848.84
2023-02-19T17:15:16.701Z,97856.22
2023-02-19T17:17:43.357Z,97863.28
2023-02-19T17:20:15.630Z,97860.13
2023-02-19T17:22:42.342Z,97869.03
2023-02-19T17:25:09.019Z,97866.91
2023-02-19T17:27:35.813Z,97868.16
2023-02-19T17:30:04.226Z,97871.59
2023-02-19T17:32:32.350Z,97862.72
2023-02-19T17:35:00.219Z,97872.91
2023-02-19T17:37:28.256Z,97874.16
2023-02-19T17:39:54.905Z,97882.69
2023-02-19T17:42:21.622Z,97877.44
2023-02-19T17:44:48.357Z,97883.31
2023-02-19T17:47:14.957Z,97885.94
2023-02-19T17:49:41.635Z,97880.50
2023-02-19T17:52:08.235Z,97889.91
2023-02-19T17:54:34.898Z,97885.28
2023-02-19T17:57:01.564Z,97887.75
2023-02-19T17:59:28.178Z,97894.22
2023-02-19T18:01:54.796Z,97892.53
2023-02-19T18:04:21.545Z,97892.72
2023-02-19T18:06:48.210Z,97897.91
2023-02-19T18:09:14.817Z,97897.50
2023-02-19T18:11:45.271Z,97906.69
2023-02-19T18:14:11.926Z,97908.47
2023-02-19T18:16:44.049Z,97905.09
2023-02-19T18:19:10.724Z,97911.22
2023-02-19T18:21:37.404Z,97910.75
2023-02-19T18:24:04.466Z,97916.88
2023-02-19T18:26:31.161Z,97911.44
2023-02-19T18:28:59.697Z,97925.16
2023-02-19T18:31:26.426Z,97922.94
2023-02-19T18:33:54.314Z,97924.56
2023-02-19T18:36:22.445Z,97920.91
2023-02-19T18:38:50.325Z,97923.97
2023-02-19T18:41:19.764Z,97920.22
2023-02-19T18:43:47.222Z,97920.13
2023-02-19T18:46:14.439Z,97915.88
2023-02-19T18:48:42.546Z,97920.44
2023-02-19T18:51:10.088Z,97920.94
2023-02-19T18:53:38.348Z,97925.72
2023-02-19T18:56:06.486Z,97926.53
2023-02-19T18:58:33.103Z,97917.69
2023-02-19T19:00:59.787Z,97914.84
2023-02-19T19:03:26.558Z,97917.53
2023-02-19T19:05:53.289Z,97915.25
2023-02-19T19:08:20.071Z,97922.28
2023-02-19T19:10:46.719Z,97924.78
2023-02-19T19:13:14.339Z,97924.59
2023-02-19T19:15:40.990Z,97925.63
2023-02-19T19:18:08.834Z,97926.88
2023-02-19T19:20:36.320Z,97921.91
2023-02-19T19:23:02.938Z,97920.63
2023-02-19T19:25:29.576Z,97928.69
2023-02-19T19:27:56.220Z,97926.88
2023-02-19T19:30:22.985Z,97929.75
2023-02-19T19:32:50.044Z,97933.69
2023-02-19T19:35:17.528Z,97926.59
2023-02-19T19:37:44.172Z,97942.97
2023-02-19T19:40:11.425Z,97942.28
2023-02-19T19:42:38.378Z,97947.47
2023-02-19T19:45:06.695Z,97946.22
2023-02-19T19:47:34.520Z,97946.25
2023-02-19T19:50:02.410Z,97945.03
2023-02-19T19:52:29.011Z,97948.06
2023-02-19T19:54:55.808Z,97941.66
2023-02-19T19:57:24.368Z,97944.13
2023-02-19T19:59:52.501Z,97944.75
2023-02-19T20:02:20.475Z,97946.56
2023-02-19T20:04:47.135Z,97933.75
2023-02-19T20:07:14.384Z,97933.34
2023-02-19T20:09:42.803Z,97930.47
2023-02-19T20:12:10.420Z,97930.31
2023-02-19T20:14:38.371Z,97929.78
2023-02-19T20:17:06.475Z,97927.25
2023-02-19T20:19:34.422Z,97922.94
2023-02-19T20:22:01.074Z,97934.47
2023-02-19T20:24:27.915Z,97945.41
2023-02-19T20:26:55.855Z,97961.25
2023-02-19T20:29:22.527Z,97969.84
2023-02-19T20:31:49.659Z,97960.13
2023-02-19T20:34:16.445Z,97957.31
2023-02-19T20:36:47.069Z,97972.97
2023-02-19T20:39:14.874Z,97971.56
2023-02-19T20:41:48.057Z,97967.16
2023-02-19T20:44:14.706Z,97974.06
2023-02-19T20:46:44.947Z,97972.47
2023-02-19T20:49:16.552Z,97978.28
2023-02-19T20:51:50.443Z,97978.00
2023-02-19T20:54:18.353Z,97994.50
2023-02-19T20:56:48.629Z,98003.03
2023-02-19T20:59:16.097Z,98004.94
2023-02-19T21:01:42.815Z,97994.81
2023-02-19T21:04:09.480Z,98001.16
2023-02-19T21:06:36.119Z,98000.88
2023-02-19T21:09:03.213Z,98003.66
2023-02-19T21:11:29.826Z,98017.03
2023-02-19T21:13:56.444Z,98006.09
2023-02-19T21:16:23.271Z,98003.09
2023-02-19T21:18:49.946Z,97991.19
2023-02-19T21:21:20.326Z,97986.19
2023-02-19T21:23:47.556Z,97982.25
2023-02-19T21:26:14.293Z,97984.66
2023-02-19T21:28:41.063Z,97979.63
2023-02-19T21:31:07.871Z,97980.97
2023-02-19T21:33:34.540Z,97999.38
2023-02-19T21:36:04.724Z,98003.47
2023-02-19T21:38:32.680Z,97999.78
2023-02-19T21:40:59.398Z,98004.72
2023-02-19T21:43:26.542Z,98006.59
2023-02-19T21:45:53.197Z,98012.25
2023-02-19T21:48:19.812Z,98018.28
2023-02-19T21:50:46.452Z,98012.00
2023-02-19T21:53:13.439Z,98011.50
2023-02-19T21:55:42.931Z,98019.28
2023-02-19T21:58:16.591Z,98021.75
2023-02-19T22:00:43.357Z,98023.63
2023-02-19T22:03:15.292Z,98029.66
2023-02-19T22:05:41.930Z,98017.72
2023-02-19T22:08:08.573Z,98022.72
2023-02-19T22:10:35.188Z,98014.88
2023-02-19T22:13:01.781Z,98015.34
2023-02-19T22:15:28.423Z,98022.00
2023-02-19T22:17:55.167Z,98029.97
2023-02-19T22:20:21.837Z,98023.41
2023-02-19T22:22:48.621Z,98027.56
2023-02-19T22:25:15.339Z,98026.06
2023-02-19T22:27:41.997Z,98018.75
2023-02-19T22:30:09.098Z,98028.66
2023-02-19T22:32:35.888Z,98028.84
2023-02-19T22:35:02.692Z,98029.47
2023-02-19T22:37:29.373Z,98029.03
2023-02-19T22:39:56.047Z,98023.94
2023-02-19T22:42:22.665Z,98024.03
2023-02-19T22:44:49.292Z,98033.84
2023-02-19T22:47:17.716Z,98029.88
2023-02-19T22:49:44.314Z,98028.59
2023-02-19T22:52:10.946Z,98026.72
2023-02-19T22:54:37.643Z,98028.03
2023-02-19T22:57:04.276Z,98029.03
2023-02-19T22:59:31.018Z,98023.75
2023-02-19T23:01:57.726Z,98030.63
2023-02-19T23:04:24.987Z,98033.00
2023-02-19T23:06:51.702Z,98024.53
2023-02-19T23:09:20.752Z,98028.00
2023-02-19T23:11:47.396Z,98028.28
2023-02-19T23:14:15.837Z,98024.56
2023-02-19T23:16:42.573Z,98022.72
2023-02-19T23:19:09.783Z,98015.59
2023-02-19T23:21:36.414Z,98022.91
2023-02-19T23:24:03.252Z,98018.38
2023-02-19T23:26:29.862Z,98026.69
2023-02-19T23:28:56.483Z,98036.69
2023-02-19T23:31:23.337Z,98033.34
2023-02-19T23:33:50.003Z,98034.16
2023-02-19T23:36:16.591Z,98042.38
2023-02-19T23:38:46.368Z,98045.00
2023-02-19T23:41:14.201Z,98046.16
2023-02-19T23:43:40.881Z,98046.19
2023-02-19T23:46:07.556Z,98037.28
2023-02-19T23:48:34.175Z,98046.09
2023-02-19T23:51:00.780Z,98042.25
2023-02-19T23:53:27.451Z,98037.63
2023-02-19T23:55:54.239Z,98041.84
2023-02-19T23:58:21.004Z,98043.19
